createdAt,value
2016-12-26T00:00:14.987Z,1021.57
2016-12-26T00:00:55.574Z,1021.55
2016-12-26T00:01:36.160Z,1021.54
2016-12-26T00:02:16.745Z,1021.54
2016-12-26T00:02:57.327Z,1021.56
2016-12-26T00:03:37.932Z,1021.54
2016-12-26T00:04:18.511Z,1021.51
2016-12-26T00:04:59.083Z,1021.54
2016-12-26T00:05:39.682Z,1021.51
2016-12-26T00:06:20.262Z,1021.58
2016-12-26T00:07:00.847Z,1021.53
2016-12-26T00:07:41.421Z,1021.51
2016-12-26T00:08:21.998Z,1021.56
2016-12-26T00:09:02.578Z,1021.52
2016-12-26T00:09:43.157Z,1021.54
2016-12-26T00:10:23.758Z,1021.55
2016-12-26T00:11:04.349Z,1021.51
2016-12-26T00:11:44.946Z,1021.52
2016-12-26T00:12:25.534Z,1021.52
2016-12-26T00:13:06.125Z,1021.53
2016-12-26T00:13:46.729Z,1021.53
2016-12-26T00:14:27.311Z,1021.52
2016-12-26T00:15:07.892Z,1021.48
2016-12-26T00:15:48.475Z,1021.49
2016-12-26T00:16:29.060Z,1021.5
2016-12-26T00:17:09.632Z,1021.47
2016-12-26T00:17:50.221Z,1021.47
2016-12-26T00:18:30.811Z,1021.48
2016-12-26T00:19:11.396Z,1021.45
2016-12-26T00:19:51.984Z,1021.46
2016-12-26T00:20:32.569Z,1021.46
2016-12-26T00:21:13.170Z,1021.44
2016-12-26T00:21:53.745Z,1021.44
2016-12-26T00:22:34.324Z,1021.43
2016-12-26T00:23:14.907Z,1021.45
2016-12-26T00:23:55.497Z,1021.43
2016-12-26T00:24:36.076Z,1021.46
2016-12-26T00:25:16.665Z,1021.46
2016-12-26T00:25:57.242Z,1021.44
2016-12-26T00:26:37.831Z,1021.44
2016-12-26T00:27:18.422Z,1021.46
2016-12-26T00:27:58.995Z,1021.43
2016-12-26T00:28:39.587Z,1021.44
2016-12-26T00:29:20.170Z,1021.44
2016-12-26T00:30:00.754Z,1021.45
2016-12-26T00:30:41.350Z,1021.43
2016-12-26T00:31:21.933Z,1021.41
2016-12-26T00:32:02.508Z,1021.42
2016-12-26T00:32:43.099Z,1021.43
2016-12-26T00:33:23.685Z,1021.41
2016-12-26T00:34:04.277Z,1021.41
2016-12-26T00:34:44.894Z,1021.42
2016-12-26T00:35:25.476Z,1021.4
2016-12-26T00:36:06.058Z,1021.4
2016-12-26T00:36:46.661Z,1021.38
2016-12-26T00:37:27.246Z,1021.37
2016-12-26T00:38:07.846Z,1021.35
2016-12-26T00:38:48.465Z,1021.36
2016-12-26T00:39:29.056Z,1021.38
2016-12-26T00:40:09.633Z,1021.33
2016-12-26T00:40:50.215Z,1021.35
2016-12-26T00:41:30.810Z,1021.34
2016-12-26T00:42:11.383Z,1021.35
2016-12-26T00:42:51.995Z,1021.34
2016-12-26T00:43:32.578Z,1021.35
2016-12-26T00:44:13.198Z,1021.32
2016-12-26T00:44:53.781Z,1021.28
2016-12-26T00:45:34.375Z,1021.33
2016-12-26T00:46:14.948Z,1021.3
2016-12-26T00:46:55.541Z,1021.29
2016-12-26T00:47:36.122Z,1021.32
2016-12-26T00:48:16.704Z,1021.3
2016-12-26T00:48:57.285Z,1021.35
2016-12-26T00:49:37.882Z,1021.37
2016-12-26T00:50:18.458Z,1021.33
2016-12-26T00:50:59.044Z,1021.31
2016-12-26T00:51:39.631Z,1021.3
2016-12-26T00:52:20.213Z,1021.29
2016-12-26T00:53:00.802Z,1021.26
2016-12-26T00:53:41.390Z,1021.26
2016-12-26T00:54:21.974Z,1021.31
2016-12-26T00:55:02.563Z,1021.27
2016-12-26T00:55:43.148Z,1021.27
2016-12-26T00:56:23.743Z,1021.25
2016-12-26T00:57:04.318Z,1021.26
2016-12-26T00:57:44.909Z,1021.24
2016-12-26T00:58:25.497Z,1021.24
2016-12-26T00:59:06.075Z,1021.23
2016-12-26T00:59:46.657Z,1021.21
2016-12-26T01:00:27.236Z,1021.21
2016-12-26T01:01:07.818Z,1021.19
2016-12-26T01:01:48.398Z,1021.2
2016-12-26T01:02:28.978Z,1021.19
2016-12-26T01:03:09.565Z,1021.19
2016-12-26T01:03:50.154Z,1021.22
2016-12-26T01:04:30.757Z,1021.19
2016-12-26T01:05:11.359Z,1021.21
2016-12-26T01:05:51.944Z,1021.2
2016-12-26T01:06:32.523Z,1021.18
2016-12-26T01:07:13.103Z,1021.22
2016-12-26T01:07:53.691Z,1021.21
2016-12-26T01:08:34.274Z,1021.2
2016-12-26T01:09:14.863Z,1021.17
2016-12-26T01:09:55.447Z,1021.2
2016-12-26T01:10:36.027Z,1021.18
2016-12-26T01:11:16.627Z,1021.17
2016-12-26T01:11:57.233Z,1021.17
2016-12-26T01:12:37.822Z,1021.19
2016-12-26T01:13:18.419Z,1021.16
2016-12-26T01:13:59.005Z,1021.13
2016-12-26T01:14:39.597Z,1021.15
2016-12-26T01:15:20.216Z,1021.12
2016-12-26T01:16:00.830Z,1021.15
2016-12-26T01:16:41.406Z,1021.16
2016-12-26T01:17:21.990Z,1021.09
2016-12-26T01:18:02.594Z,1021.12
2016-12-26T01:18:43.186Z,1021.11
2016-12-26T01:19:23.768Z,1021.11
2016-12-26T01:20:04.363Z,1021.07
2016-12-26T01:20:44.967Z,1021.11
2016-12-26T01:21:25.555Z,1021.11
2016-12-26T01:22:06.150Z,1021.11
2016-12-26T01:22:46.744Z,1021.08
2016-12-26T01:23:27.346Z,1021.08
2016-12-26T01:24:07.935Z,1021.07
2016-12-26T01:24:48.523Z,1021.07
2016-12-26T01:25:29.106Z,1021.04
2016-12-26T01:26:09.703Z,1021.04
2016-12-26T01:26:50.299Z,1021.07
2016-12-26T01:27:30.891Z,1021.06
2016-12-26T01:28:11.484Z,1021.1
2016-12-26T01:28:52.062Z,1021.11
2016-12-26T01:29:32.637Z,1021.07
2016-12-26T01:30:13.219Z,1021.12
2016-12-26T01:30:53.806Z,1021.13
2016-12-26T01:31:34.392Z,1021.1
2016-12-26T01:32:14.999Z,1021.1
2016-12-26T01:32:55.579Z,1021.12
2016-12-26T01:33:36.181Z,1021.12
2016-12-26T01:34:16.777Z,1021.08
2016-12-26T01:34:57.375Z,1021.07
2016-12-26T01:35:37.967Z,1021.1
2016-12-26T01:36:18.553Z,1021.08
2016-12-26T01:36:59.137Z,1021.08
2016-12-26T01:37:39.719Z,1021.07
2016-12-26T01:38:20.321Z,1021.09
2016-12-26T01:39:00.927Z,1021.08
2016-12-26T01:39:41.526Z,1021.09
2016-12-26T01:40:22.109Z,1021.06
2016-12-26T01:41:02.693Z,1021.08
2016-12-26T01:41:43.302Z,1021.09
2016-12-26T01:42:23.891Z,1021.09
2016-12-26T01:43:04.475Z,1021.09
2016-12-26T01:43:45.076Z,1021.06
2016-12-26T01:44:25.672Z,1021.09
2016-12-26T01:45:06.247Z,1021.07
2016-12-26T01:45:46.837Z,1021.04
2016-12-26T01:46:27.458Z,1021.06
2016-12-26T01:47:08.039Z,1021.07
2016-12-26T01:47:48.644Z,1021.05
2016-12-26T01:48:29.245Z,1021.02
2016-12-26T01:49:09.836Z,1021.07
2016-12-26T01:49:50.423Z,1021.05
2016-12-26T01:50:31.013Z,1021.07
2016-12-26T01:51:11.598Z,1021.05
2016-12-26T01:51:52.193Z,1021.07
2016-12-26T01:52:32.795Z,1021.08
2016-12-26T01:53:13.385Z,1021.06
2016-12-26T01:53:53.994Z,1021.02
2016-12-26T01:54:34.577Z,1021.01
2016-12-26T01:55:15.160Z,1020.99
2016-12-26T01:55:55.770Z,1020.99
2016-12-26T01:56:36.364Z,1020.99
2016-12-26T01:57:16.944Z,1021.01
2016-12-26T01:57:57.529Z,1021.01
2016-12-26T01:58:38.130Z,1021
2016-12-26T01:59:18.736Z,1020.97
2016-12-26T01:59:59.323Z,1021.01
2016-12-26T02:00:39.905Z,1020.99
2016-12-26T02:01:20.492Z,1021.01
2016-12-26T02:02:01.075Z,1021.01
2016-12-26T02:02:41.664Z,1021.01
2016-12-26T02:03:22.242Z,1021.02
2016-12-26T02:04:02.832Z,1021.02
2016-12-26T02:04:43.436Z,1021.02
2016-12-26T02:05:24.034Z,1021
2016-12-26T02:06:04.647Z,1020.99
2016-12-26T02:06:45.253Z,1020.99
2016-12-26T02:07:25.846Z,1020.99
2016-12-26T02:08:06.443Z,1021.03
2016-12-26T02:08:47.033Z,1021.01
2016-12-26T02:09:27.617Z,1021.02
2016-12-26T02:10:08.198Z,1021.02
2016-12-26T02:10:48.782Z,1021.02
2016-12-26T02:11:29.369Z,1021
2016-12-26T02:12:09.952Z,1020.99
2016-12-26T02:12:50.559Z,1020.99
2016-12-26T02:13:31.147Z,1020.99
2016-12-26T02:14:11.731Z,1021
2016-12-26T02:14:52.320Z,1020.97
2016-12-26T02:15:32.908Z,1020.99
2016-12-26T02:16:13.501Z,1020.97
2016-12-26T02:16:54.080Z,1020.97
2016-12-26T02:17:34.669Z,1020.95
2016-12-26T02:18:15.257Z,1020.96
2016-12-26T02:18:55.839Z,1021
2016-12-26T02:19:36.460Z,1021
2016-12-26T02:20:17.036Z,1021
2016-12-26T02:20:57.629Z,1020.99
2016-12-26T02:21:38.227Z,1021
2016-12-26T02:22:18.828Z,1021.01
2016-12-26T02:22:59.419Z,1021.01
2016-12-26T02:23:40.014Z,1021.03
2016-12-26T02:24:20.605Z,1021.03
2016-12-26T02:25:01.199Z,1021.04
2016-12-26T02:25:41.785Z,1021.03
2016-12-26T02:26:22.386Z,1021
2016-12-26T02:27:02.991Z,1021.04
2016-12-26T02:27:43.577Z,1021.04
2016-12-26T02:28:24.155Z,1021
2016-12-26T02:29:04.756Z,1021.01
2016-12-26T02:29:45.347Z,1020.99
2016-12-26T02:30:25.948Z,1020.99
2016-12-26T02:31:06.519Z,1020.98
2016-12-26T02:31:47.132Z,1020.98
2016-12-26T02:32:27.710Z,1020.93
2016-12-26T02:33:08.296Z,1020.99
2016-12-26T02:33:48.887Z,1020.96
2016-12-26T02:34:29.470Z,1020.97
2016-12-26T02:35:10.064Z,1020.97
2016-12-26T02:35:50.631Z,1020.93
2016-12-26T02:36:31.222Z,1020.99
2016-12-26T02:37:11.799Z,1020.98
2016-12-26T02:37:52.378Z,1021
2016-12-26T02:38:32.967Z,1020.97
2016-12-26T02:39:13.569Z,1020.96
2016-12-26T02:39:54.158Z,1020.95
2016-12-26T02:40:34.741Z,1020.98
2016-12-26T02:41:15.337Z,1020.97
2016-12-26T02:41:55.914Z,1020.95
2016-12-26T02:42:36.496Z,1020.95
2016-12-26T02:43:17.078Z,1020.95
2016-12-26T02:43:57.663Z,1020.94
2016-12-26T02:44:38.245Z,1020.94
2016-12-26T02:45:18.837Z,1020.91
2016-12-26T02:45:59.421Z,1020.89
2016-12-26T02:46:40.016Z,1020.9
2016-12-26T02:47:20.606Z,1020.94
2016-12-26T02:48:01.182Z,1020.92
2016-12-26T02:48:41.796Z,1020.9
2016-12-26T02:49:22.396Z,1020.87
2016-12-26T02:50:02.978Z,1020.9
2016-12-26T02:50:43.550Z,1020.86
2016-12-26T02:51:24.135Z,1020.89
2016-12-26T02:52:04.718Z,1020.86
2016-12-26T02:52:45.297Z,1020.86
2016-12-26T02:53:25.880Z,1020.87
2016-12-26T02:54:06.458Z,1020.87
2016-12-26T02:54:47.038Z,1020.89
2016-12-26T02:55:27.618Z,1020.85
2016-12-26T02:56:08.192Z,1020.86
2016-12-26T02:56:48.787Z,1020.86
2016-12-26T02:57:29.386Z,1020.84
2016-12-26T02:58:09.971Z,1020.88
2016-12-26T02:58:50.556Z,1020.86
2016-12-26T02:59:31.140Z,1020.82
2016-12-26T03:00:11.724Z,1020.85
2016-12-26T03:00:52.313Z,1020.86
2016-12-26T03:01:32.890Z,1020.84
2016-12-26T03:02:13.469Z,1020.85
2016-12-26T03:02:54.065Z,1020.85
2016-12-26T03:03:34.652Z,1020.83
2016-12-26T03:04:15.251Z,1020.83
2016-12-26T03:04:55.845Z,1020.88
2016-12-26T03:05:36.448Z,1020.8
2016-12-26T03:06:17.029Z,1020.83
2016-12-26T03:06:57.622Z,1020.82
2016-12-26T03:07:38.217Z,1020.85
2016-12-26T03:08:18.806Z,1020.83
2016-12-26T03:08:59.395Z,1020.84
2016-12-26T03:09:39.978Z,1020.84
2016-12-26T03:10:20.580Z,1020.84
2016-12-26T03:11:01.181Z,1020.84
2016-12-26T03:11:41.763Z,1020.86
2016-12-26T03:12:22.336Z,1020.84
2016-12-26T03:13:02.926Z,1020.83
2016-12-26T03:13:43.523Z,1020.86
2016-12-26T03:14:24.121Z,1020.83
2016-12-26T03:15:04.700Z,1020.83
2016-12-26T03:15:45.280Z,1020.87
2016-12-26T03:16:25.869Z,1020.82
2016-12-26T03:17:06.447Z,1020.82
2016-12-26T03:17:47.028Z,1020.83
2016-12-26T03:18:27.640Z,1020.85
2016-12-26T03:19:08.231Z,1020.89
2016-12-26T03:19:48.813Z,1020.83
2016-12-26T03:20:29.401Z,1020.83
2016-12-26T03:21:09.991Z,1020.85
2016-12-26T03:21:50.592Z,1020.82
2016-12-26T03:22:31.191Z,1020.84
2016-12-26T03:23:11.778Z,1020.85
2016-12-26T03:23:52.366Z,1020.81
2016-12-26T03:24:32.946Z,1020.84
2016-12-26T03:25:13.539Z,1020.8
2016-12-26T03:25:54.123Z,1020.81
2016-12-26T03:26:34.706Z,1020.77
2016-12-26T03:27:15.299Z,1020.75
2016-12-26T03:27:55.886Z,1020.74
2016-12-26T03:28:36.470Z,1020.78
2016-12-26T03:29:17.052Z,1020.72
2016-12-26T03:29:57.625Z,1020.72
2016-12-26T03:30:38.199Z,1020.71
2016-12-26T03:31:18.787Z,1020.72
2016-12-26T03:31:59.373Z,1020.71
2016-12-26T03:32:39.961Z,1020.7
2016-12-26T03:33:20.540Z,1020.77
2016-12-26T03:34:01.129Z,1020.75
2016-12-26T03:34:41.723Z,1020.77
2016-12-26T03:35:22.311Z,1020.78
2016-12-26T03:36:02.899Z,1020.77
2016-12-26T03:36:43.489Z,1020.79
2016-12-26T03:37:24.090Z,1020.77
2016-12-26T03:38:04.673Z,1020.81
2016-12-26T03:38:45.267Z,1020.79
2016-12-26T03:39:25.850Z,1020.8
2016-12-26T03:40:06.451Z,1020.79
2016-12-26T03:40:47.037Z,1020.78
2016-12-26T03:41:27.612Z,1020.77
2016-12-26T03:42:08.193Z,1020.78
2016-12-26T03:42:48.789Z,1020.77
2016-12-26T03:43:29.376Z,1020.78
2016-12-26T03:44:09.954Z,1020.81
2016-12-26T03:44:50.544Z,1020.81
2016-12-26T03:45:31.127Z,1020.83
2016-12-26T03:46:11.730Z,1020.81
2016-12-26T03:46:52.310Z,1020.81
2016-12-26T03:47:32.899Z,1020.84
2016-12-26T03:48:13.491Z,1020.79
2016-12-26T03:48:54.068Z,1020.77
2016-12-26T03:49:34.657Z,1020.78
2016-12-26T03:50:15.233Z,1020.72
2016-12-26T03:50:55.827Z,1020.74
2016-12-26T03:51:36.427Z,1020.71
2016-12-26T03:52:17.031Z,1020.7
2016-12-26T03:52:57.643Z,1020.66
2016-12-26T03:53:38.237Z,1020.66
2016-12-26T03:54:18.834Z,1020.64
2016-12-26T03:54:59.431Z,1020.67
2016-12-26T03:55:40.002Z,1020.64
2016-12-26T03:56:20.607Z,1020.65
2016-12-26T03:57:01.191Z,1020.67
2016-12-26T03:57:41.772Z,1020.65
2016-12-26T03:58:22.377Z,1020.62
2016-12-26T03:59:02.961Z,1020.65
2016-12-26T03:59:43.545Z,1020.65
2016-12-26T04:00:24.131Z,1020.7
2016-12-26T04:01:04.709Z,1020.63
2016-12-26T04:01:45.298Z,1020.67
2016-12-26T04:02:26.859Z,1020.65
2016-12-26T04:03:07.494Z,1020.68
2016-12-26T04:03:48.076Z,1020.68
2016-12-26T04:04:28.656Z,1020.7
2016-12-26T04:05:09.247Z,1020.68
2016-12-26T04:05:49.826Z,1020.66
2016-12-26T04:06:30.401Z,1020.67
2016-12-26T04:07:10.983Z,1020.66
2016-12-26T04:07:51.580Z,1020.61
2016-12-26T04:08:32.160Z,1020.63
2016-12-26T04:09:12.728Z,1020.64
2016-12-26T04:09:53.305Z,1020.61
2016-12-26T04:10:33.903Z,1020.58
2016-12-26T04:11:14.484Z,1020.56
2016-12-26T04:11:55.062Z,1020.63
2016-12-26T04:12:35.644Z,1020.59
2016-12-26T04:13:16.224Z,1020.62
2016-12-26T04:13:56.806Z,1020.59
2016-12-26T04:14:37.384Z,1020.58
2016-12-26T04:15:17.977Z,1020.56
2016-12-26T04:15:58.568Z,1020.55
2016-12-26T04:16:39.171Z,1020.57
2016-12-26T04:17:19.767Z,1020.61
2016-12-26T04:18:00.368Z,1020.61
2016-12-26T04:18:40.968Z,1020.58
2016-12-26T04:19:21.556Z,1020.63
2016-12-26T04:20:02.138Z,1020.61
2016-12-26T04:20:42.730Z,1020.62
2016-12-26T04:21:23.318Z,1020.6
2016-12-26T04:22:03.919Z,1020.59
2016-12-26T04:22:44.536Z,1020.61
2016-12-26T04:23:25.132Z,1020.64
2016-12-26T04:24:05.724Z,1020.63
2016-12-26T04:24:46.299Z,1020.62
2016-12-26T04:25:26.883Z,1020.63
2016-12-26T04:26:07.459Z,1020.62
2016-12-26T04:26:48.043Z,1020.63
2016-12-26T04:27:28.639Z,1020.64
2016-12-26T04:28:09.240Z,1020.67
2016-12-26T04:28:49.821Z,1020.62
2016-12-26T04:29:30.407Z,1020.65
2016-12-26T04:30:11.013Z,1020.65
2016-12-26T04:30:51.596Z,1020.65
2016-12-26T04:31:32.213Z,1020.67
2016-12-26T04:32:12.805Z,1020.63
2016-12-26T04:32:53.405Z,1020.64
2016-12-26T04:33:34.003Z,1020.67
2016-12-26T04:34:14.598Z,1020.66
2016-12-26T04:34:55.188Z,1020.64
2016-12-26T04:35:35.774Z,1020.66
2016-12-26T04:36:16.375Z,1020.63
2016-12-26T04:36:56.962Z,1020.64
2016-12-26T04:37:37.548Z,1020.64
2016-12-26T04:38:18.130Z,1020.63
2016-12-26T04:38:58.727Z,1020.62
2016-12-26T04:39:39.320Z,1020.64
2016-12-26T04:40:19.900Z,1020.61
2016-12-26T04:41:00.487Z,1020.61
2016-12-26T04:41:41.070Z,1020.62
2016-12-26T04:42:21.659Z,1020.6
2016-12-26T04:43:02.241Z,1020.6
2016-12-26T04:43:42.823Z,1020.61
2016-12-26T04:44:23.405Z,1020.63
2016-12-26T04:45:03.982Z,1020.6
2016-12-26T04:45:44.562Z,1020.61
2016-12-26T04:46:25.145Z,1020.58
2016-12-26T04:47:05.741Z,1020.62
2016-12-26T04:47:46.332Z,1020.6
2016-12-26T04:48:26.942Z,1020.59
2016-12-26T04:49:07.542Z,1020.6
2016-12-26T04:49:48.116Z,1020.62
2016-12-26T04:50:28.703Z,1020.63
2016-12-26T04:51:09.310Z,1020.6
2016-12-26T04:51:49.896Z,1020.59
2016-12-26T04:52:30.482Z,1020.59
2016-12-26T04:53:11.069Z,1020.58
2016-12-26T04:53:51.650Z,1020.59
2016-12-26T04:54:32.251Z,1020.6
2016-12-26T04:55:12.857Z,1020.58
2016-12-26T04:55:53.460Z,1020.59
2016-12-26T04:56:34.053Z,1020.56
2016-12-26T04:57:14.647Z,1020.61
2016-12-26T04:57:55.229Z,1020.59
2016-12-26T04:58:35.814Z,1020.58
2016-12-26T04:59:16.413Z,1020.6
2016-12-26T04:59:56.984Z,1020.58
2016-12-26T05:00:37.583Z,1020.65
2016-12-26T05:01:18.185Z,1020.63
2016-12-26T05:01:58.790Z,1020.64
2016-12-26T05:02:39.385Z,1020.63
2016-12-26T05:03:19.987Z,1020.6
2016-12-26T05:04:00.576Z,1020.66
2016-12-26T05:04:41.186Z,1020.61
2016-12-26T05:05:21.770Z,1020.6
2016-12-26T05:06:02.345Z,1020.59
2016-12-26T05:06:42.935Z,1020.59
2016-12-26T05:07:23.533Z,1020.6
2016-12-26T05:08:04.107Z,1020.56
2016-12-26T05:08:44.688Z,1020.57
2016-12-26T05:09:25.294Z,1020.58
2016-12-26T05:10:05.881Z,1020.59
2016-12-26T05:10:46.471Z,1020.59
2016-12-26T05:11:27.059Z,1020.58
2016-12-26T05:12:07.649Z,1020.58
2016-12-26T05:12:48.248Z,1020.6
2016-12-26T05:13:28.833Z,1020.62
2016-12-26T05:14:09.414Z,1020.61
2016-12-26T05:14:49.995Z,1020.59
2016-12-26T05:15:30.577Z,1020.61
2016-12-26T05:16:11.160Z,1020.6
2016-12-26T05:16:51.743Z,1020.6
2016-12-26T05:17:32.321Z,1020.61
2016-12-26T05:18:12.912Z,1020.6
2016-12-26T05:18:53.523Z,1020.6
2016-12-26T05:19:34.116Z,1020.63
2016-12-26T05:20:14.695Z,1020.59
2016-12-26T05:20:55.274Z,1020.66
2016-12-26T05:21:35.885Z,1020.6
2016-12-26T05:22:16.483Z,1020.61
2016-12-26T05:22:57.101Z,1020.62
2016-12-26T05:23:37.677Z,1020.58
2016-12-26T05:24:18.267Z,1020.59
2016-12-26T05:24:58.854Z,1020.59
2016-12-26T05:25:39.437Z,1020.58
2016-12-26T05:26:20.024Z,1020.58
2016-12-26T05:27:00.611Z,1020.59
2016-12-26T05:27:41.207Z,1020.61
2016-12-26T05:28:21.809Z,1020.59
2016-12-26T05:29:02.392Z,1020.61
2016-12-26T05:29:42.975Z,1020.61
2016-12-26T05:30:23.574Z,1020.62
2016-12-26T05:31:04.158Z,1020.62
2016-12-26T05:31:44.741Z,1020.65
2016-12-26T05:32:25.327Z,1020.6
2016-12-26T05:33:05.913Z,1020.59
2016-12-26T05:33:46.505Z,1020.62
2016-12-26T05:34:27.084Z,1020.66
2016-12-26T05:35:07.663Z,1020.62
2016-12-26T05:35:48.250Z,1020.65
2016-12-26T05:36:28.835Z,1020.61
2016-12-26T05:37:09.427Z,1020.64
2016-12-26T05:37:50.033Z,1020.63
2016-12-26T05:38:30.618Z,1020.7
2016-12-26T05:39:11.199Z,1020.68
2016-12-26T05:39:51.778Z,1020.68
2016-12-26T05:40:32.372Z,1020.71
2016-12-26T05:41:12.949Z,1020.65
2016-12-26T05:41:53.542Z,1020.66
2016-12-26T05:42:34.120Z,1020.67
2016-12-26T05:43:14.712Z,1020.67
2016-12-26T05:43:55.301Z,1020.64
2016-12-26T05:44:35.888Z,1020.67
2016-12-26T05:45:16.481Z,1020.67
2016-12-26T05:45:57.068Z,1020.65
2016-12-26T05:46:37.641Z,1020.67
2016-12-26T05:47:18.232Z,1020.68
2016-12-26T05:47:58.853Z,1020.68
2016-12-26T05:48:39.432Z,1020.66
2016-12-26T05:49:20.005Z,1020.66
2016-12-26T05:50:00.606Z,1020.67
2016-12-26T05:50:41.202Z,1020.71
2016-12-26T05:51:21.795Z,1020.68
2016-12-26T05:52:02.383Z,1020.68
2016-12-26T05:52:42.986Z,1020.71
2016-12-26T05:53:23.580Z,1020.71
2016-12-26T05:54:04.158Z,1020.75
2016-12-26T05:54:44.736Z,1020.72
2016-12-26T05:55:25.319Z,1020.73
2016-12-26T05:56:05.919Z,1020.71
2016-12-26T05:56:46.519Z,1020.76
2016-12-26T05:57:27.113Z,1020.73
2016-12-26T05:58:07.717Z,1020.72
2016-12-26T05:58:48.295Z,1020.74
2016-12-26T05:59:28.887Z,1020.76
2016-12-26T06:00:09.469Z,1020.77
2016-12-26T06:00:50.055Z,1020.75
2016-12-26T06:01:30.663Z,1020.78
2016-12-26T06:02:11.239Z,1020.76
2016-12-26T06:02:51.841Z,1020.76
2016-12-26T06:03:32.422Z,1020.79
2016-12-26T06:04:13.006Z,1020.76
2016-12-26T06:04:53.580Z,1020.75
2016-12-26T06:05:35.017Z,1020.79
2016-12-26T06:06:15.606Z,1020.8
2016-12-26T06:06:56.189Z,1020.75
2016-12-26T06:07:36.768Z,1020.78
2016-12-26T06:08:17.358Z,1020.81
2016-12-26T06:08:57.939Z,1020.77
2016-12-26T06:09:38.530Z,1020.78
2016-12-26T06:10:19.129Z,1020.8
2016-12-26T06:10:59.708Z,1020.81
2016-12-26T06:11:40.281Z,1020.83
2016-12-26T06:12:20.881Z,1020.81
2016-12-26T06:13:01.462Z,1020.81
2016-12-26T06:13:42.042Z,1020.83
2016-12-26T06:14:22.625Z,1020.84
2016-12-26T06:15:03.202Z,1020.81
2016-12-26T06:15:43.797Z,1020.79
2016-12-26T06:16:24.393Z,1020.78
2016-12-26T06:17:04.970Z,1020.8
2016-12-26T06:17:45.548Z,1020.78
2016-12-26T06:18:26.150Z,1020.77
2016-12-26T06:19:06.749Z,1020.79
2016-12-26T06:19:47.340Z,1020.82
2016-12-26T06:20:27.933Z,1020.81
2016-12-26T06:21:08.516Z,1020.77
2016-12-26T06:21:49.090Z,1020.82
2016-12-26T06:22:29.676Z,1020.82
2016-12-26T06:23:10.261Z,1020.81
2016-12-26T06:23:50.860Z,1020.83
2016-12-26T06:24:31.441Z,1020.83
2016-12-26T06:25:12.045Z,1020.82
2016-12-26T06:25:52.618Z,1020.83
2016-12-26T06:26:33.217Z,1020.86
2016-12-26T06:27:13.800Z,1020.84
2016-12-26T06:27:54.424Z,1020.79
2016-12-26T06:28:35.013Z,1020.83
2016-12-26T06:29:15.595Z,1020.82
2016-12-26T06:29:56.177Z,1020.8
2016-12-26T06:30:36.775Z,1020.82
2016-12-26T06:31:17.353Z,1020.84
2016-12-26T06:31:57.927Z,1020.85
2016-12-26T06:32:38.506Z,1020.83
2016-12-26T06:33:19.085Z,1020.85
2016-12-26T06:33:59.668Z,1020.88
2016-12-26T06:34:40.248Z,1020.86
2016-12-26T06:35:20.820Z,1020.9
2016-12-26T06:36:01.402Z,1020.88
2016-12-26T06:36:41.985Z,1020.85
2016-12-26T06:37:22.572Z,1020.86
2016-12-26T06:38:03.148Z,1020.87
2016-12-26T06:38:43.728Z,1020.83
2016-12-26T06:39:24.312Z,1020.86
2016-12-26T06:40:04.902Z,1020.81
2016-12-26T06:40:45.492Z,1020.85
2016-12-26T06:41:26.088Z,1020.82
2016-12-26T06:42:06.672Z,1020.82
2016-12-26T06:42:47.266Z,1020.82
2016-12-26T06:43:27.861Z,1020.83
2016-12-26T06:44:08.446Z,1020.78
2016-12-26T06:44:49.027Z,1020.81
2016-12-26T06:45:29.615Z,1020.81
2016-12-26T06:46:10.197Z,1020.83
2016-12-26T06:46:50.816Z,1020.8
2016-12-26T06:47:31.438Z,1020.8
2016-12-26T06:48:12.011Z,1020.82
2016-12-26T06:48:52.603Z,1020.86
2016-12-26T06:49:33.186Z,1020.84
2016-12-26T06:50:13.773Z,1020.84
2016-12-26T06:50:54.356Z,1020.84
2016-12-26T06:51:34.975Z,1020.84
2016-12-26T06:52:15.560Z,1020.86
2016-12-26T06:52:56.160Z,1020.83
2016-12-26T06:53:36.746Z,1020.91
2016-12-26T06:54:17.354Z,1020.9
2016-12-26T06:54:57.930Z,1020.9
2016-12-26T06:55:38.526Z,1020.92
2016-12-26T06:56:19.121Z,1020.9
2016-12-26T06:56:59.730Z,1020.88
2016-12-26T06:57:40.309Z,1020.89
2016-12-26T06:58:20.898Z,1020.91
2016-12-26T06:59:01.483Z,1020.91
2016-12-26T06:59:42.068Z,1020.9
2016-12-26T07:00:22.649Z,1020.91
2016-12-26T07:01:03.244Z,1020.92
2016-12-26T07:01:43.833Z,1020.91
2016-12-26T07:02:24.415Z,1020.94
2016-12-26T07:03:05.020Z,1020.91
2016-12-26T07:03:45.595Z,1020.98
2016-12-26T07:04:26.203Z,1020.95
2016-12-26T07:05:06.796Z,1020.95
2016-12-26T07:05:47.378Z,1020.96
2016-12-26T07:06:27.981Z,1020.97
2016-12-26T07:07:08.564Z,1020.98
2016-12-26T07:07:49.169Z,1020.98
2016-12-26T07:08:29.749Z,1020.99
2016-12-26T07:09:10.327Z,1021
2016-12-26T07:09:50.931Z,1021.01
2016-12-26T07:10:31.515Z,1021
2016-12-26T07:11:12.118Z,1021.06
2016-12-26T07:11:52.704Z,1021.03
2016-12-26T07:12:33.338Z,1021.02
2016-12-26T07:13:13.927Z,1021.04
2016-12-26T07:13:54.532Z,1021.07
2016-12-26T07:14:35.144Z,1021.05
2016-12-26T07:15:15.735Z,1021.07
2016-12-26T07:15:56.327Z,1021.05
2016-12-26T07:16:36.921Z,1021.09
2016-12-26T07:17:17.521Z,1021.11
2016-12-26T07:17:58.108Z,1021.14
2016-12-26T07:18:38.702Z,1021.12
2016-12-26T07:19:19.279Z,1021.11
2016-12-26T07:19:59.873Z,1021.13
2016-12-26T07:20:40.440Z,1021.14
2016-12-26T07:21:21.034Z,1021.14
2016-12-26T07:22:01.620Z,1021.14
2016-12-26T07:22:42.195Z,1021.14
2016-12-26T07:23:22.794Z,1021.13
2016-12-26T07:24:03.380Z,1021.13
2016-12-26T07:24:43.970Z,1021.14
2016-12-26T07:25:24.544Z,1021.18
2016-12-26T07:26:05.128Z,1021.18
2016-12-26T07:26:45.707Z,1021.2
2016-12-26T07:27:26.297Z,1021.15
2016-12-26T07:28:06.891Z,1021.15
2016-12-26T07:28:47.485Z,1021.19
2016-12-26T07:29:28.059Z,1021.22
2016-12-26T07:30:08.648Z,1021.19
2016-12-26T07:30:49.225Z,1021.23
2016-12-26T07:31:29.817Z,1021.22
2016-12-26T07:32:10.415Z,1021.21
2016-12-26T07:32:51.006Z,1021.23
2016-12-26T07:33:31.597Z,1021.22
2016-12-26T07:34:12.187Z,1021.25
2016-12-26T07:34:52.773Z,1021.25
2016-12-26T07:35:33.350Z,1021.22
2016-12-26T07:36:13.952Z,1021.23
2016-12-26T07:36:54.529Z,1021.23
2016-12-26T07:37:35.105Z,1021.23
2016-12-26T07:38:15.678Z,1021.25
2016-12-26T07:38:56.271Z,1021.26
2016-12-26T07:39:36.839Z,1021.21
2016-12-26T07:40:17.436Z,1021.24
2016-12-26T07:40:58.025Z,1021.23
2016-12-26T07:41:38.631Z,1021.21
2016-12-26T07:42:19.228Z,1021.23
2016-12-26T07:42:59.823Z,1021.22
2016-12-26T07:43:40.410Z,1021.22
2016-12-26T07:44:20.987Z,1021.26
2016-12-26T07:45:01.588Z,1021.26
2016-12-26T07:45:42.186Z,1021.28
2016-12-26T07:46:22.766Z,1021.3
2016-12-26T07:47:03.355Z,1021.27
2016-12-26T07:47:43.945Z,1021.28
2016-12-26T07:48:24.543Z,1021.33
2016-12-26T07:49:05.132Z,1021.32
2016-12-26T07:49:45.718Z,1021.31
2016-12-26T07:50:26.302Z,1021.34
2016-12-26T07:51:06.887Z,1021.32
2016-12-26T07:51:47.474Z,1021.31
2016-12-26T07:52:28.052Z,1021.31
2016-12-26T07:53:08.638Z,1021.31
2016-12-26T07:53:49.213Z,1021.34
2016-12-26T07:54:29.803Z,1021.33
2016-12-26T07:55:10.382Z,1021.34
2016-12-26T07:55:50.964Z,1021.34
2016-12-26T07:56:31.563Z,1021.32
2016-12-26T07:57:12.157Z,1021.3
2016-12-26T07:57:52.747Z,1021.34
2016-12-26T07:58:33.330Z,1021.29
2016-12-26T07:59:13.923Z,1021.29
2016-12-26T07:59:54.530Z,1021.31
2016-12-26T08:00:35.116Z,1021.34
2016-12-26T08:01:15.707Z,1021.37
2016-12-26T08:01:56.287Z,1021.39
2016-12-26T08:02:36.869Z,1021.36
2016-12-26T08:03:17.444Z,1021.39
2016-12-26T08:03:58.019Z,1021.43
2016-12-26T08:04:38.626Z,1021.42
2016-12-26T08:05:19.209Z,1021.42
2016-12-26T08:05:59.794Z,1021.41
2016-12-26T08:06:40.378Z,1021.42
2016-12-26T08:07:20.949Z,1021.42
2016-12-26T08:08:01.544Z,1021.42
2016-12-26T08:08:42.136Z,1021.45
2016-12-26T08:09:22.738Z,1021.45
2016-12-26T08:10:03.337Z,1021.49
2016-12-26T08:10:43.928Z,1021.47
2016-12-26T08:11:24.514Z,1021.47
2016-12-26T08:12:05.094Z,1021.51
2016-12-26T08:12:45.673Z,1021.48